Superferry II — SWKV — position and weather

sailwx.info

Track history (hours):
 
Tides and Currents Weather Stations Pressure Air Temp Water Temp Dewpoint Dewpoint Depression Visibility Wind Speed Wind Dir Waves Ship Positions

Superferry II

Last reported at 2015-Mar-31 05:33 UTC. Time now 2015-Mar-31 08:32 UTC.
Position N 37°58' E 024°12'.

Length 122 m; draft 4.7 m.

Type: Passenger vessel. MMSI: 237001000.

Date/timePositionNaut miles runAvg speedWind from/ knotsBaromVisibWave heightAir tempDewpointWater temp
2015-Mar-31 05:33N 37°58' E 024°12'10 4.7
2015-Mar-31 03:29N 38°01' E 024°01'0 0.0
2015-Mar-31 02:25N 38°01' E 024°01'0 0.0
2015-Mar-31 01:15N 38°01' E 024°01'0 0.0
2015-Mar-31 00:27N 38°01' E 024°01'0 0.0
2015-Mar-30 23:14N 38°01' E 024°01'0 0.0
2015-Mar-30 21:25N 38°01' E 024°01'0 0.0
2015-Mar-30 20:11N 38°01' E 024°01'0 0.0
2015-Mar-30 19:10N 38°01' E 024°01'0 0.0
2015-Mar-30 17:25N 38°01' E 024°01'0 0.0
2015-Mar-30 16:33N 38°01' E 024°01'4 3.5
2015-Mar-30 15:29N 38°01' E 024°05'4614.7
2015-Mar-30 12:20N 37°39' E 024°58'1215.2
2015-Mar-30 11:33N 37°32' E 025°09'9 9.1
2015-Mar-30 10:33N 37°28' E 025°19'0 0.0
2015-Mar-30 09:33N 37°28' E 025°19'1111.0
2015-Mar-30 08:33N 37°33' E 025°07'5316.3
2015-Mar-30 05:18N 37°59' E 024°09'7 6.8
2015-Mar-30 04:17N 38°01' E 024°01'0 0.0
2015-Mar-30 03:29N 38°01' E 024°01'0 0.0
2015-Mar-30 02:28N 38°01' E 024°01'0 0.0
2015-Mar-30 00:24N 38°01' E 024°01'0 0.0
2015-Mar-29 23:17N 38°01' E 024°01'0 0.0
2015-Mar-29 22:27N 38°01' E 024°01'0 0.0
2015-Mar-29 21:09N 38°01' E 024°01'1 1.9
2015-Mar-29 20:24N 38°01' E 024°03'3 0.8
2015-Mar-29 16:33N 37°60' E 024°06'3 2.9
2015-Mar-29 15:33N 38°01' E 024°03'5114.7
2015-Mar-29 12:05N 37°37' E 024°60'916.3
2015-Mar-29 11:32N 37°32' E 025°09'9 9.3
2015-Mar-29 10:33N 37°28' E 025°19'0 0.0
2015-Mar-29 09:33N 37°28' E 025°19'1111.4
2015-Mar-29 08:34N 37°33' E 025°07'4816.0
2015-Mar-29 05:32N 37°58' E 024°14'11 0.8
2015-Mar-28 16:33N 38°01' E 024°01'5015.2
2015-Mar-28 13:15N 37°39' E 024°58'1216.6
2015-Mar-28 12:33N 37°32' E 025°09'9 9.2
2015-Mar-28 11:33N 37°28' E 025°19'0 0.1
2015-Mar-28 10:33N 37°28' E 025°19'1513.9
2015-Mar-28 09:27N 37°35' E 025°03'4815.6
2015-Mar-28 06:22N 37°59' E 024°10'2 0.2
2015-Mar-27 17:28N 37°58' E 024°12'8 5.7
2015-Mar-27 16:08N 38°01' E 024°03'4716.3
2015-Mar-27 13:14N 37°40' E 024°57'1318.8
2015-Mar-27 12:33N 37°32' E 025°10'9 9.0
2015-Mar-27 11:33N 37°28' E 025°20'5 5.4
2015-Mar-27 10:33N 37°30' E 025°13'1211.1
2015-Mar-27 09:30N 37°36' E 025°01'3 0.2
2015-Mar-26 13:24N 37°39' E 024°58'1112.9
2015-Mar-26 12:33N 37°32' E 025°09'9 9.2
2015-Mar-26 11:34N 37°28' E 025°20'0 0.4
2015-Mar-26 10:33N 37°28' E 025°19'1312.8
2015-Mar-26 09:32N 37°34' E 025°04'7 0.3
2015-Mar-25 13:14N 37°39' E 024°58'1116.7
2015-Mar-25 12:33N 37°32' E 025°09'9 9.1
2015-Mar-25 11:33N 37°28' E 025°19'0 0.0
2015-Mar-25 10:33N 37°28' E 025°19'1110.8
2015-Mar-25 09:30N 37°33' E 025°07'8 0.4
2015-Mar-24 13:21N 37°38' E 024°59'1012.7
2015-Mar-24 12:31N 37°32' E 025°09'9 9.4
2015-Mar-24 11:33N 37°28' E 025°19'0 0.4
2015-Mar-24 10:33N 37°28' E 025°19'18 0.9
2015-Mar-23 13:12N 37°38' E 024°59'1015.3
2015-Mar-23 12:33N 37°32' E 025°09'9 9.2
2015-Mar-23 11:33N 37°28' E 025°20'0 0.1
2015-Mar-23 10:32N 37°28' E 025°19'1413.5
2015-Mar-23 09:31N 37°34' E 025°04'5 0.3
2015-Mar-22 13:07N 37°38' E 024°59'1017.2
2015-Mar-22 12:32N 37°32' E 025°09'9 9.2
2015-Mar-22 11:33N 37°28' E 025°19'0 0.0
2015-Mar-22 10:33N 37°28' E 025°19'1212.2
2015-Mar-22 09:32N 37°33' E 025°05'8 0.4
2015-Mar-21 13:12N 37°39' E 024°58'1117.6
2015-Mar-21 12:33N 37°32' E 025°09'9 9.1
2015-Mar-21 11:33N 37°28' E 025°19'0 0.1
2015-Mar-21 10:33N 37°28' E 025°19'1313.1
2015-Mar-21 09:33N 37°34' E 025°05'  
Track history (hours):
 
Tides and Currents Weather Stations Pressure Air Temp Water Temp Dewpoint Dewpoint Depression Visibility Wind Speed Wind Dir Waves Ship Positions

Superferry II

Last reported at 2015-Mar-31 05:33 UTC. Time now 2015-Mar-31 08:32 UTC.
Position N 37°58' E 024°12'.

Length 122 m; draft 4.7 m.

Type: Passenger vessel. MMSI: 237001000.

Date/timePositionNaut miles runAvg speedWind from/ knotsBaromVisibWave heightAir tempDewpointWater temp
2015-Mar-31 05:33N 37°58' E 024°12'10 4.7
2015-Mar-31 03:29N 38°01' E 024°01'0 0.0
2015-Mar-31 02:25N 38°01' E 024°01'0 0.0
2015-Mar-31 01:15N 38°01' E 024°01'0 0.0
2015-Mar-31 00:27N 38°01' E 024°01'0 0.0
2015-Mar-30 23:14N 38°01' E 024°01'0 0.0
2015-Mar-30 21:25N 38°01' E 024°01'0 0.0
2015-Mar-30 20:11N 38°01' E 024°01'0 0.0
2015-Mar-30 19:10N 38°01' E 024°01'0 0.0
2015-Mar-30 17:25N 38°01' E 024°01'0 0.0
2015-Mar-30 16:33N 38°01' E 024°01'4 3.5
2015-Mar-30 15:29N 38°01' E 024°05'4614.7
2015-Mar-30 12:20N 37°39' E 024°58'1215.2
2015-Mar-30 11:33N 37°32' E 025°09'9 9.1
2015-Mar-30 10:33N 37°28' E 025°19'0 0.0
2015-Mar-30 09:33N 37°28' E 025°19'1111.0
2015-Mar-30 08:33N 37°33' E 025°07'5316.3
2015-Mar-30 05:18N 37°59' E 024°09'7 6.8
2015-Mar-30 04:17N 38°01' E 024°01'0 0.0
2015-Mar-30 03:29N 38°01' E 024°01'0 0.0
2015-Mar-30 02:28N 38°01' E 024°01'0 0.0
2015-Mar-30 00:24N 38°01' E 024°01'0 0.0
2015-Mar-29 23:17N 38°01' E 024°01'0 0.0
2015-Mar-29 22:27N 38°01' E 024°01'0 0.0
2015-Mar-29 21:09N 38°01' E 024°01'1 1.9
2015-Mar-29 20:24N 38°01' E 024°03'3 0.8
2015-Mar-29 16:33N 37°60' E 024°06'3 2.9
2015-Mar-29 15:33N 38°01' E 024°03'5114.7
2015-Mar-29 12:05N 37°37' E 024°60'916.3
2015-Mar-29 11:32N 37°32' E 025°09'9 9.3
2015-Mar-29 10:33N 37°28' E 025°19'0 0.0
2015-Mar-29 09:33N 37°28' E 025°19'1111.4
2015-Mar-29 08:34N 37°33' E 025°07'4816.0
2015-Mar-29 05:32N 37°58' E 024°14'11 0.8
2015-Mar-28 16:33N 38°01' E 024°01'5015.2
2015-Mar-28 13:15N 37°39' E 024°58'1216.6
2015-Mar-28 12:33N 37°32' E 025°09'9 9.2
2015-Mar-28 11:33N 37°28' E 025°19'0 0.1
2015-Mar-28 10:33N 37°28' E 025°19'1513.9
2015-Mar-28 09:27N 37°35' E 025°03'4815.6
2015-Mar-28 06:22N 37°59' E 024°10'2 0.2
2015-Mar-27 17:28N 37°58' E 024°12'8 5.7
2015-Mar-27 16:08N 38°01' E 024°03'4716.3
2015-Mar-27 13:14N 37°40' E 024°57'1318.8
2015-Mar-27 12:33N 37°32' E 025°10'9 9.0
2015-Mar-27 11:33N 37°28' E 025°20'5 5.4
2015-Mar-27 10:33N 37°30' E 025°13'1211.1
2015-Mar-27 09:30N 37°36' E 025°01'3 0.2
2015-Mar-26 13:24N 37°39' E 024°58'1112.9
2015-Mar-26 12:33N 37°32' E 025°09'9 9.2
2015-Mar-26 11:34N 37°28' E 025°20'0 0.4
2015-Mar-26 10:33N 37°28' E 025°19'1312.8
2015-Mar-26 09:32N 37°34' E 025°04'7 0.3
2015-Mar-25 13:14N 37°39' E 024°58'1116.7
2015-Mar-25 12:33N 37°32' E 025°09'9 9.1
2015-Mar-25 11:33N 37°28' E 025°19'0 0.0
2015-Mar-25 10:33N 37°28' E 025°19'1110.8
2015-Mar-25 09:30N 37°33' E 025°07'8 0.4
2015-Mar-24 13:21N 37°38' E 024°59'1012.7
2015-Mar-24 12:31N 37°32' E 025°09'9 9.4
2015-Mar-24 11:33N 37°28' E 025°19'0 0.4
2015-Mar-24 10:33N 37°28' E 025°19'18 0.9
2015-Mar-23 13:12N 37°38' E 024°59'1015.3
2015-Mar-23 12:33N 37°32' E 025°09'9 9.2
2015-Mar-23 11:33N 37°28' E 025°20'0 0.1
2015-Mar-23 10:32N 37°28' E 025°19'1413.5
2015-Mar-23 09:31N 37°34' E 025°04'5 0.3
2015-Mar-22 13:07N 37°38' E 024°59'1017.2
2015-Mar-22 12:32N 37°32' E 025°09'9 9.2
2015-Mar-22 11:33N 37°28' E 025°19'0 0.0
2015-Mar-22 10:33N 37°28' E 025°19'1212.2
2015-Mar-22 09:32N 37°33' E 025°05'8 0.4
2015-Mar-21 13:12N 37°39' E 024°58'1117.6
2015-Mar-21 12:33N 37°32' E 025°09'9 9.1
2015-Mar-21 11:33N 37°28' E 025°19'0 0.1
2015-Mar-21 10:33N 37°28' E 025°19'1313.1
2015-Mar-21 09:33N 37°34' E 025°05'  

Dump ship's entire track history